createdAt,value
2019-05-01T00:01:25.415Z,100345.34
2019-05-01T00:04:10.616Z,100340.94
2019-05-01T00:06:43.911Z,100342.05
2019-05-01T00:09:14.993Z,100340.53
2019-05-01T00:11:45.037Z,100339.00
2019-05-01T00:14:15.233Z,100334.64
2019-05-01T00:16:45.748Z,100325.27
2019-05-01T00:19:15.984Z,100326.62
2019-05-01T00:21:45.654Z,100320.22
2019-05-01T00:24:15.466Z,100322.36
2019-05-01T00:26:45.537Z,100319.25
2019-05-01T00:29:15.375Z,100330.06
2019-05-01T00:31:45.213Z,100335.31
2019-05-01T00:34:14.949Z,100328.21
2019-05-01T00:36:44.877Z,100333.91
2019-05-01T00:39:15.213Z,100329.28
2019-05-01T00:41:45.044Z,100330.67
2019-05-01T00:44:14.780Z,100328.06
2019-05-01T00:46:44.712Z,100320.00
2019-05-01T00:49:14.637Z,100325.45
2019-05-01T00:51:44.512Z,100326.27
2019-05-01T00:54:14.193Z,100329.72
2019-05-01T00:56:57.405Z,100335.65
2019-05-01T00:59:41.448Z,100331.52
2019-05-01T01:02:22.363Z,100338.98
2019-05-01T01:04:52.162Z,100342.27
2019-05-01T01:07:21.937Z,100342.89
2019-05-01T01:09:51.848Z,100333.65
2019-05-01T01:12:21.795Z,100338.86
2019-05-01T01:14:51.666Z,100331.05
2019-05-01T01:17:21.406Z,100329.52
2019-05-01T01:19:51.318Z,100330.80
2019-05-01T01:22:21.110Z,100324.89
2019-05-01T01:24:51.038Z,100323.59
2019-05-01T01:27:20.895Z,100329.88
2019-05-01T01:29:50.886Z,100322.75
2019-05-01T01:32:20.799Z,100325.73
2019-05-01T01:34:50.772Z,100331.66
2019-05-01T01:37:20.525Z,100326.04
2019-05-01T01:39:50.575Z,100327.45
2019-05-01T01:42:20.840Z,100334.88
2019-05-01T01:45:08.740Z,100336.63
2019-05-01T01:47:57.894Z,100336.48
2019-05-01T01:50:27.895Z,100330.55
2019-05-01T01:52:58.003Z,100325.34
2019-05-01T01:55:27.976Z,100329.48
2019-05-01T01:57:58.323Z,100331.43
2019-05-01T02:00:34.085Z,100337.33
2019-05-01T02:03:04.700Z,100328.73
2019-05-01T02:05:38.353Z,100333.44
2019-05-01T02:08:09.007Z,100332.03
2019-05-01T02:10:43.101Z,100322.09
2019-05-01T02:13:11.028Z,100319.13
2019-05-01T02:15:40.779Z,100317.91
2019-05-01T02:18:10.614Z,100317.20
2019-05-01T02:20:41.055Z,100314.60
2019-05-01T02:23:10.843Z,100312.44
2019-05-01T02:25:42.701Z,100319.77
2019-05-01T02:28:32.466Z,100316.47
2019-05-01T02:31:28.265Z,100311.64
2019-05-01T02:33:58.464Z,100316.84
2019-05-01T02:36:29.096Z,100314.61
2019-05-01T02:39:00.090Z,100322.44
2019-05-01T02:41:36.738Z,100311.89
2019-05-01T02:44:16.154Z,100313.76
2019-05-01T02:46:49.105Z,100317.09
2019-05-01T02:49:46.279Z,100319.63
2019-05-01T02:52:17.228Z,100326.62
2019-05-01T02:54:49.434Z,100313.17
2019-05-01T02:57:22.353Z,100314.52
2019-05-01T02:59:54.247Z,100316.95
2019-05-01T03:02:27.101Z,100317.22
2019-05-01T03:04:57.936Z,100313.03
2019-05-01T03:07:31.432Z,100315.64
2019-05-01T03:10:02.886Z,100307.84
2019-05-01T03:12:34.462Z,100308.47
2019-05-01T03:15:05.439Z,100315.44
2019-05-01T03:17:47.620Z,100310.70
2019-05-01T03:20:27.172Z,100304.55
2019-05-01T03:23:17.524Z,100308.16
2019-05-01T03:25:47.893Z,100303.09
2019-05-01T03:28:18.096Z,100301.83
2019-05-01T03:30:48.370Z,100304.80
2019-05-01T03:33:18.383Z,100304.94
2019-05-01T03:35:48.547Z,100305.16
2019-05-01T03:38:19.040Z,100304.03
2019-05-01T03:40:49.726Z,100305.63
2019-05-01T03:43:20.038Z,100299.30
2019-05-01T03:45:50.663Z,100299.00
2019-05-01T03:48:21.243Z,100306.00
2019-05-01T03:50:51.374Z,100308.11
2019-05-01T03:53:21.327Z,100315.37
2019-05-01T03:55:51.275Z,100321.81
2019-05-01T03:58:21.289Z,100320.75
2019-05-01T04:01:13.069Z,100326.82
2019-05-01T04:03:49.801Z,100330.28
2019-05-01T04:06:20.276Z,100332.14
2019-05-01T04:08:50.779Z,100331.53
2019-05-01T04:11:22.343Z,100326.73
2019-05-01T04:13:52.337Z,100322.48
2019-05-01T04:16:23.047Z,100326.73
2019-05-01T04:18:52.853Z,100324.23
2019-05-01T04:21:25.400Z,100324.52
2019-05-01T04:23:55.079Z,100322.44
2019-05-01T04:26:25.269Z,100319.69
2019-05-01T04:29:20.314Z,100317.35
2019-05-01T04:31:54.794Z,100316.11
2019-05-01T04:34:49.545Z,100316.73
2019-05-01T04:37:22.414Z,100327.58
2019-05-01T04:39:52.626Z,100328.56
2019-05-01T04:42:22.338Z,100328.10
2019-05-01T04:44:52.450Z,100328.67
2019-05-01T04:47:22.374Z,100337.42
2019-05-01T04:49:53.445Z,100337.02
2019-05-01T04:52:23.465Z,100321.91
2019-05-01T04:54:53.458Z,100327.07
2019-05-01T04:57:23.808Z,100330.63
2019-05-01T04:59:53.715Z,100326.91
2019-05-01T05:02:32.820Z,100325.11
2019-05-01T05:05:02.878Z,100324.36
2019-05-01T05:07:32.778Z,100324.08
2019-05-01T05:10:02.649Z,100320.03
2019-05-01T05:12:43.011Z,100322.33
2019-05-01T05:15:35.118Z,100325.01
2019-05-01T05:18:05.821Z,100316.73
2019-05-01T05:20:35.840Z,100316.76
2019-05-01T05:23:05.611Z,100315.11
2019-05-01T05:25:36.094Z,100306.13
2019-05-01T05:28:06.024Z,100308.03
2019-05-01T05:30:37.317Z,100307.71
2019-05-01T05:33:18.277Z,100306.05
2019-05-01T05:35:43.693Z,100311.04
2019-05-01T05:38:39.181Z,100304.44
2019-05-01T05:41:09.890Z,100306.78
2019-05-01T05:43:40.227Z,100308.33
2019-05-01T05:46:10.434Z,100309.49
2019-05-01T05:48:40.696Z,100312.77
2019-05-01T05:51:49.344Z,100312.77
2019-05-01T05:54:38.071Z,100312.14
2019-05-01T05:57:18.125Z,100325.16
2019-05-01T05:59:52.937Z,100335.16
2019-05-01T06:03:02.598Z,100330.80
2019-05-01T06:05:51.855Z,100332.97
2019-05-01T06:08:25.454Z,100327.37
2019-05-01T06:11:34.021Z,100321.38
2019-05-01T06:14:22.221Z,100320.44
2019-05-01T06:17:13.978Z,100317.34
2019-05-01T06:19:49.749Z,100324.13
2019-05-01T06:22:40.725Z,100332.64
2019-05-01T06:25:22.283Z,100338.57
2019-05-01T06:27:51.337Z,100331.50
2019-05-01T06:30:21.147Z,100333.06
2019-05-01T06:32:51.093Z,100336.81
2019-05-01T06:35:20.960Z,100336.28
2019-05-01T06:38:03.973Z,100333.23
2019-05-01T06:40:42.419Z,100333.04
2019-05-01T06:44:02.112Z,100323.24
2019-05-01T06:46:47.054Z,100320.05
2019-05-01T06:49:39.326Z,100316.55
2019-05-01T06:52:10.363Z,100321.50
2019-05-01T06:54:40.669Z,100323.92
2019-05-01T06:57:11.238Z,100316.58
2019-05-01T06:59:42.426Z,100318.37
2019-05-01T07:02:16.129Z,100317.83
2019-05-01T07:04:48.004Z,100314.56
2019-05-01T07:07:27.656Z,100320.57
2019-05-01T07:09:55.421Z,100320.28
2019-05-01T07:12:28.714Z,100320.68
2019-05-01T07:15:00.066Z,100320.48
2019-05-01T07:17:30.206Z,100325.50
2019-05-01T07:20:18.278Z,100320.26
2019-05-01T07:22:48.735Z,100323.36
2019-05-01T07:25:20.013Z,100303.61
2019-05-01T07:27:53.992Z,100314.33
2019-05-01T07:30:31.661Z,100311.39
2019-05-01T07:33:01.999Z,100315.25
2019-05-01T07:35:33.029Z,100314.19
2019-05-01T07:38:03.556Z,100311.34
2019-05-01T07:40:33.547Z,100305.70
2019-05-01T07:43:12.596Z,100307.50
2019-05-01T07:46:02.291Z,100319.17
2019-05-01T07:48:41.314Z,100311.28
2019-05-01T07:51:08.979Z,100302.77
2019-05-01T07:53:39.626Z,100296.20
2019-05-01T07:56:11.758Z,100291.66
2019-05-01T07:58:41.768Z,100286.24
2019-05-01T08:01:20.166Z,100289.86
2019-05-01T08:03:50.008Z,100283.95
2019-05-01T08:06:21.918Z,100292.19
2019-05-01T08:08:51.582Z,100300.61
2019-05-01T08:11:21.414Z,100283.91
2019-05-01T08:13:51.163Z,100283.53
2019-05-01T08:16:21.053Z,100282.75
2019-05-01T08:19:04.087Z,100281.81
2019-05-01T08:22:01.684Z,100279.86
2019-05-01T08:24:29.736Z,100282.78
2019-05-01T08:27:00.782Z,100284.84
2019-05-01T08:29:58.250Z,100271.00
2019-05-01T08:32:51.386Z,100271.11
2019-05-01T08:35:23.604Z,100285.19
2019-05-01T08:37:53.734Z,100273.04
2019-05-01T08:40:26.963Z,100270.15
2019-05-01T08:42:56.884Z,100267.75
2019-05-01T08:45:44.690Z,100263.89
2019-05-01T08:48:39.311Z,100264.47
2019-05-01T08:51:09.334Z,100258.75
2019-05-01T08:53:39.236Z,100263.40
2019-05-01T08:56:09.846Z,100261.14
2019-05-01T08:58:44.882Z,100250.16
2019-05-01T09:01:15.040Z,100257.52
2019-05-01T09:03:43.913Z,100274.31
2019-05-01T09:06:13.753Z,100265.10
2019-05-01T09:08:43.508Z,100251.95
2019-05-01T09:11:13.483Z,100259.22
2019-05-01T09:13:43.294Z,100253.67
2019-05-01T09:16:13.360Z,100252.15
2019-05-01T09:18:43.259Z,100255.30
2019-05-01T09:21:13.263Z,100249.70
2019-05-01T09:23:46.263Z,100245.21
2019-05-01T09:26:23.138Z,100249.34
2019-05-01T09:28:58.072Z,100241.61
2019-05-01T09:31:33.864Z,100247.78
2019-05-01T09:34:00.781Z,100240.95
2019-05-01T09:36:30.782Z,100244.05
2019-05-01T09:39:00.940Z,100246.20
2019-05-01T09:41:38.039Z,100248.88
2019-05-01T09:44:05.790Z,100235.98
2019-05-01T09:46:33.919Z,100236.05
2019-05-01T09:49:04.002Z,100241.94
2019-05-01T09:51:58.837Z,100234.73
2019-05-01T09:54:51.033Z,100255.08
2019-05-01T09:57:21.015Z,100229.45
2019-05-01T09:59:50.922Z,100229.45
2019-05-01T10:02:20.885Z,100227.91
2019-05-01T10:04:50.637Z,100227.91
2019-05-01T10:07:23.850Z,100232.41
2019-05-01T10:09:54.001Z,100212.45
2019-05-01T10:12:23.817Z,100212.45
2019-05-01T10:14:54.934Z,100207.74
2019-05-01T10:17:24.726Z,100212.80
2019-05-01T10:19:54.701Z,100215.24
2019-05-01T10:22:24.575Z,100208.33
2019-05-01T10:24:54.373Z,100218.61
2019-05-01T10:27:30.802Z,100218.61
2019-05-01T10:30:19.734Z,100205.83
2019-05-01T10:32:57.621Z,100209.11
2019-05-01T10:35:42.398Z,100194.33
2019-05-01T10:38:09.514Z,100190.42
2019-05-01T10:40:39.342Z,100201.05
2019-05-01T10:43:10.781Z,100198.83
2019-05-01T10:45:40.831Z,100189.86
2019-05-01T10:48:10.672Z,100184.94
2019-05-01T10:50:40.446Z,100187.73
2019-05-01T10:53:10.269Z,100185.21
2019-05-01T10:55:41.328Z,100182.17
2019-05-01T10:58:12.888Z,100186.06
2019-05-01T11:00:44.447Z,100176.03
2019-05-01T11:03:15.502Z,100167.70
2019-05-01T11:05:55.658Z,100167.70
2019-05-01T11:08:17.879Z,100180.67
2019-05-01T11:10:47.738Z,100180.43
2019-05-01T11:13:17.599Z,100180.29
2019-05-01T11:15:48.773Z,100176.20
2019-05-01T11:18:18.540Z,100176.20
2019-05-01T11:20:48.176Z,100186.25
2019-05-01T11:23:18.110Z,100178.14
2019-05-01T11:25:47.885Z,100178.14
2019-05-01T11:28:17.889Z,100174.81
2019-05-01T11:30:47.777Z,100177.64
2019-05-01T11:33:35.006Z,100168.24
2019-05-01T11:36:35.780Z,100171.70
2019-05-01T11:39:42.103Z,100174.19
2019-05-01T11:42:14.047Z,100158.45
2019-05-01T11:44:43.831Z,100164.81
2019-05-01T11:47:13.745Z,100164.72
2019-05-01T11:49:43.617Z,100154.14
2019-05-01T11:52:13.493Z,100146.42
2019-05-01T11:54:43.360Z,100155.05
2019-05-01T11:57:13.222Z,100145.12
2019-05-01T11:59:43.246Z,100140.25
2019-05-01T12:02:13.198Z,100149.25
2019-05-01T12:04:43.223Z,100146.52
2019-05-01T12:07:13.072Z,100155.37
2019-05-01T12:09:44.049Z,100147.11
2019-05-01T12:12:15.793Z,100140.91
2019-05-01T12:14:45.834Z,100138.20
2019-05-01T12:17:34.557Z,100138.98
2019-05-01T12:20:04.879Z,100132.14
2019-05-01T12:22:34.863Z,100130.73
2019-05-01T12:25:06.348Z,100132.21
2019-05-01T12:27:36.077Z,100136.05
2019-05-01T12:30:06.434Z,100124.61
2019-05-01T12:32:37.472Z,100124.43
2019-05-01T12:35:07.781Z,100131.74
2019-05-01T12:37:43.537Z,100127.51
2019-05-01T12:40:21.608Z,100123.16
2019-05-01T12:42:53.009Z,100112.29
2019-05-01T12:45:22.873Z,100107.20
2019-05-01T12:48:03.858Z,100110.02
2019-05-01T12:50:33.814Z,100105.20
2019-05-01T12:53:19.840Z,100108.90
2019-05-01T12:56:08.594Z,100097.64
2019-05-01T12:58:39.711Z,100117.81
2019-05-01T13:01:09.597Z,100102.70
2019-05-01T13:03:39.452Z,100103.60
2019-05-01T13:06:09.267Z,100112.93
2019-05-01T13:08:39.190Z,100104.73
2019-05-01T13:11:09.150Z,100100.36
2019-05-01T13:13:39.002Z,100094.39
2019-05-01T13:16:08.921Z,100092.11
2019-05-01T13:18:38.793Z,100092.33
2019-05-01T13:21:08.420Z,100076.08
2019-05-01T13:23:38.261Z,100078.73
2019-05-01T13:26:25.978Z,100077.48
2019-05-01T13:29:00.694Z,100081.12
2019-05-01T13:31:49.321Z,100076.14
2019-05-01T13:34:19.138Z,100079.56
2019-05-01T13:37:02.127Z,100066.28
2019-05-01T13:39:20.450Z,100073.11
2019-05-01T13:41:50.316Z,100078.52
2019-05-01T13:44:20.171Z,100067.72
2019-05-01T13:46:50.042Z,100074.30
2019-05-01T13:49:19.814Z,100077.00
2019-05-01T13:51:49.661Z,100072.23
2019-05-01T13:54:19.333Z,100071.59
2019-05-01T13:56:49.210Z,100077.08
2019-05-01T13:59:19.076Z,100055.83
2019-05-01T14:01:50.404Z,100064.23
2019-05-01T14:04:21.669Z,100060.88
2019-05-01T14:06:51.370Z,100075.20
2019-05-01T14:09:25.593Z,100083.60
2019-05-01T14:11:55.406Z,100074.17
2019-05-01T14:14:25.331Z,100076.16
2019-05-01T14:16:55.255Z,100071.82
2019-05-01T14:19:25.097Z,100074.91
2019-05-01T14:24:44.189Z,100073.50
2019-05-01T14:27:13.960Z,100073.63
2019-05-01T14:29:43.776Z,100068.77
2019-05-01T14:32:13.534Z,100073.74
2019-05-01T14:34:43.311Z,100070.75
2019-05-01T14:37:13.231Z,100074.99
2019-05-01T14:39:44.281Z,100069.52
2019-05-01T14:42:14.096Z,100064.45
2019-05-01T14:44:43.991Z,100062.79
2019-05-01T14:47:15.169Z,100062.41
2019-05-01T14:49:44.969Z,100055.33
2019-05-01T14:52:14.796Z,100051.66
2019-05-01T14:54:44.737Z,100049.91
2019-05-01T14:57:14.499Z,100049.86
2019-05-01T14:59:44.222Z,100049.70
2019-05-01T15:02:15.361Z,100050.38
2019-05-01T15:04:46.496Z,100055.47
2019-05-01T15:07:16.215Z,100055.53
2019-05-01T15:09:47.405Z,100045.29
2019-05-01T15:12:18.623Z,100040.72
2019-05-01T15:15:24.178Z,100044.58
2019-05-01T15:18:11.603Z,100034.48
2019-05-01T15:20:41.425Z,100034.56
2019-05-01T15:23:11.213Z,100040.73
2019-05-01T15:25:41.045Z,100036.64
2019-05-01T15:28:11.076Z,100034.28
2019-05-01T15:30:41.085Z,100033.02
2019-05-01T15:33:12.125Z,100035.01
2019-05-01T15:35:42.023Z,100035.22
2019-05-01T15:38:11.844Z,100033.00
2019-05-01T15:41:04.758Z,100039.36
2019-05-01T15:43:36.279Z,100040.69
2019-05-01T15:46:05.960Z,100039.16
2019-05-01T15:48:35.939Z,100031.52
2019-05-01T15:51:05.822Z,100045.30
2019-05-01T15:53:35.610Z,100047.36
2019-05-01T15:56:05.487Z,100053.79
2019-05-01T15:58:35.358Z,100049.75
2019-05-01T16:01:05.376Z,100043.78
2019-05-01T16:03:35.236Z,100061.21
2019-05-01T16:06:08.149Z,100064.10
2019-05-01T16:08:36.749Z,100068.77
2019-05-01T16:11:13.487Z,100063.75
2019-05-01T16:13:43.370Z,100063.75
2019-05-01T16:16:14.545Z,100074.27
2019-05-01T16:18:44.312Z,100074.59
2019-05-01T16:21:14.035Z,100083.66
2019-05-01T16:23:45.112Z,100085.48
2019-05-01T16:26:14.971Z,100085.48
2019-05-01T16:28:44.691Z,100090.98
2019-05-01T16:31:14.645Z,100090.98
2019-05-01T16:33:45.789Z,100080.56
2019-05-01T16:36:15.571Z,100080.56
2019-05-01T16:39:03.405Z,100074.80
2019-05-01T16:41:33.141Z,100085.20
2019-05-01T16:44:03.056Z,100083.73
2019-05-01T16:46:32.921Z,100081.63
2019-05-01T16:49:02.780Z,100083.97
2019-05-01T16:51:32.723Z,100085.09
2019-05-01T16:54:02.595Z,100085.97
2019-05-01T16:56:33.737Z,100091.06
2019-05-01T16:59:03.765Z,100092.94
2019-05-01T17:01:44.523Z,100085.56
2019-05-01T17:04:31.685Z,100085.56
2019-05-01T17:07:09.566Z,100093.29
2019-05-01T17:10:00.679Z,100097.08
2019-05-01T17:12:34.626Z,100095.30
2019-05-01T17:15:04.426Z,100101.55
2019-05-01T17:17:34.165Z,100099.41
2019-05-01T17:20:04.173Z,100095.95
2019-05-01T17:22:33.950Z,100107.02
2019-05-01T17:25:04.286Z,100110.14
2019-05-01T17:27:34.089Z,100110.97
2019-05-01T17:30:05.772Z,100113.91
2019-05-01T17:32:39.853Z,100120.33
2019-05-01T17:35:08.008Z,100120.32
2019-05-01T17:37:37.949Z,100120.32
2019-05-01T17:40:08.318Z,100121.97
2019-05-01T17:42:38.929Z,100128.86
2019-05-01T17:45:09.041Z,100133.82
2019-05-01T17:47:39.490Z,100143.02
2019-05-01T17:50:09.672Z,100154.48
2019-05-01T17:52:39.495Z,100172.16
2019-05-01T17:55:09.893Z,100182.85
2019-05-01T17:57:39.765Z,100188.50
2019-05-01T18:00:33.705Z,100183.20
2019-05-01T18:03:31.379Z,100176.44
2019-05-01T18:06:10.416Z,100171.03
2019-05-01T18:08:40.241Z,100174.41
2019-05-01T18:11:14.332Z,100185.91
2019-05-01T18:13:41.883Z,100214.50
2019-05-01T18:16:11.764Z,100228.20
2019-05-01T18:18:42.069Z,100218.66
2019-05-01T18:21:12.705Z,100220.67
2019-05-01T18:24:01.566Z,100201.97
2019-05-01T18:26:47.012Z,100220.24
2019-05-01T18:29:23.131Z,100230.12
2019-05-01T18:31:54.080Z,100233.28
2019-05-01T18:34:24.073Z,100231.33
2019-05-01T18:37:01.793Z,100227.90
2019-05-01T18:39:35.268Z,100228.24
2019-05-01T18:42:07.315Z,100227.25
2019-05-01T18:44:37.240Z,100233.84
2019-05-01T18:47:07.154Z,100229.88
2019-05-01T18:49:37.212Z,100235.13
2019-05-01T18:52:07.454Z,100226.42
2019-05-01T18:54:37.462Z,100234.11
2019-05-01T18:57:08.799Z,100233.96
2019-05-01T18:59:38.573Z,100234.62
2019-05-01T19:02:08.402Z,100243.14
2019-05-01T19:04:39.482Z,100246.73
2019-05-01T19:07:09.371Z,100245.88
2019-05-01T19:09:39.966Z,100250.66
2019-05-01T19:12:11.212Z,100242.26
2019-05-01T19:14:41.200Z,100239.61
2019-05-01T19:17:11.303Z,100234.33
2019-05-01T19:19:42.355Z,100235.30
2019-05-01T19:22:12.310Z,100240.18
2019-05-01T19:24:42.363Z,100247.00
2019-05-01T19:27:14.313Z,100246.00
2019-05-01T19:29:44.055Z,100246.39
2019-05-01T19:32:14.323Z,100249.37
2019-05-01T19:34:44.207Z,100249.78
2019-05-01T19:37:16.544Z,100245.84
2019-05-01T19:39:48.973Z,100246.64
2019-05-01T19:42:21.568Z,100251.69
2019-05-01T19:44:51.044Z,100251.92
2019-05-01T19:47:21.982Z,100251.13
2019-05-01T19:49:54.309Z,100245.98
2019-05-01T19:52:23.736Z,100245.46
2019-05-01T19:54:54.928Z,100242.66
2019-05-01T19:57:24.598Z,100253.22
2019-05-01T19:59:54.533Z,100252.35
2019-05-01T20:02:25.693Z,100256.72
2019-05-01T20:04:55.388Z,100256.20
2019-05-01T20:07:25.315Z,100260.23
2019-05-01T20:09:57.373Z,100262.11
2019-05-01T20:12:29.803Z,100263.98
2019-05-01T20:14:59.083Z,100255.20
2019-05-01T20:17:29.329Z,100255.77
2019-05-01T20:19:59.078Z,100255.28
2019-05-01T20:22:29.033Z,100258.88
2019-05-01T20:24:58.998Z,100254.69
2019-05-01T20:27:28.722Z,100259.01
2019-05-01T20:29:58.586Z,100249.73
2019-05-01T20:32:28.773Z,100258.00
2019-05-01T20:34:59.474Z,100268.19
2019-05-01T20:37:29.253Z,100259.97
2019-05-01T20:40:10.386Z,100263.25
2019-05-01T20:42:30.564Z,100271.07
2019-05-01T20:45:05.370Z,100274.27
2019-05-01T20:47:35.286Z,100280.77
2019-05-01T20:50:05.386Z,100281.20
2019-05-01T20:52:35.218Z,100280.33
2019-05-01T20:55:05.565Z,100274.06
2019-05-01T20:57:37.053Z,100281.98
2019-05-01T21:00:11.261Z,100283.77
2019-05-01T21:02:42.887Z,100282.77
2019-05-01T21:05:29.735Z,100289.44
2019-05-01T21:08:07.535Z,100294.77
2019-05-01T21:11:06.058Z,100298.50
2019-05-01T21:13:34.398Z,100300.28
2019-05-01T21:16:04.653Z,100298.44
2019-05-01T21:18:34.549Z,100295.88
2019-05-01T21:21:04.479Z,100300.45
2019-05-01T21:23:34.531Z,100300.19
2019-05-01T21:26:04.412Z,100303.44
2019-05-01T21:28:34.220Z,100307.36
2019-05-01T21:31:04.181Z,100314.78
2019-05-01T21:33:34.278Z,100312.28
2019-05-01T21:36:08.349Z,100316.62
2019-05-01T21:38:35.971Z,100321.24
2019-05-01T21:41:05.778Z,100323.30
2019-05-01T21:43:37.155Z,100317.90
2019-05-01T21:46:06.997Z,100328.23
2019-05-01T21:48:36.719Z,100323.30
2019-05-01T21:51:07.453Z,100325.56
2019-05-01T21:53:42.041Z,100325.44
2019-05-01T21:56:09.731Z,100319.83
2019-05-01T21:58:39.548Z,100320.69
2019-05-01T22:01:09.446Z,100328.64
2019-05-01T22:03:40.363Z,100329.48
2019-05-01T22:06:11.404Z,100330.46
2019-05-01T22:08:41.892Z,100324.97
2019-05-01T22:11:12.157Z,100329.92
2019-05-01T22:13:42.136Z,100331.14
2019-05-01T22:16:22.259Z,100330.52
2019-05-01T22:18:58.640Z,100333.64
2019-05-01T22:21:50.397Z,100343.91
2019-05-01T22:24:39.226Z,100338.65
2019-05-01T22:27:16.545Z,100337.96
2019-05-01T22:29:52.373Z,100345.30
2019-05-01T22:32:36.002Z,100346.57
2019-05-01T22:35:30.990Z,100348.11
2019-05-01T22:38:00.809Z,100348.22
2019-05-01T22:40:40.121Z,100344.41
2019-05-01T22:43:09.949Z,100339.05
2019-05-01T22:45:40.969Z,100346.86
2019-05-01T22:48:10.870Z,100337.55
2019-05-01T22:50:40.673Z,100341.34
2019-05-01T22:53:13.081Z,100343.00
2019-05-01T22:55:42.062Z,100348.53
2019-05-01T22:58:11.981Z,100344.95
2019-05-01T23:00:53.674Z,100354.89
2019-05-01T23:03:27.848Z,100348.76
2019-05-01T23:06:02.036Z,100347.33
2019-05-01T23:08:29.539Z,100348.34
2019-05-01T23:10:59.253Z,100345.36
2019-05-01T23:13:29.414Z,100337.85
2019-05-01T23:15:59.459Z,100337.98
2019-05-01T23:18:29.314Z,100334.25
2019-05-01T23:20:59.132Z,100344.75
2019-05-01T23:23:29.072Z,100337.70
2019-05-01T23:25:58.868Z,100311.60
2019-05-01T23:28:28.576Z,100309.20
2019-05-01T23:30:58.757Z,100316.27
2019-05-01T23:33:28.617Z,100314.70
2019-05-01T23:35:58.534Z,100285.13
2019-05-01T23:38:28.621Z,100282.48
2019-05-01T23:40:58.381Z,100285.45
2019-05-01T23:43:29.048Z,100292.05
2019-05-01T23:45:58.930Z,100294.09
2019-05-01T23:48:28.634Z,100304.63
2019-05-01T23:50:58.386Z,100297.27
2019-05-01T23:53:28.281Z,100283.58
2019-05-01T23:55:59.948Z,100301.80
2019-05-01T23:58:29.800Z,100306.91
